createdAt,value
2022-10-31T00:01:11.025Z,95014.53
2022-10-31T00:03:39.072Z,94994.31
2022-10-31T00:06:07.055Z,95006.09
2022-10-31T00:08:34.959Z,95010.25
2022-10-31T00:11:03.221Z,95005.75
2022-10-31T00:13:31.235Z,95006.44
2022-10-31T00:16:00.476Z,94999.59
2022-10-31T00:18:28.571Z,94998.53
2022-10-31T00:21:01.493Z,94989.56
2022-10-31T00:23:29.559Z,95014.34
2022-10-31T00:26:02.947Z,95005.31
2022-10-31T00:28:32.831Z,95011.91
2022-10-31T00:31:03.072Z,94987.69
2022-10-31T00:33:31.197Z,94991.38
2022-10-31T00:35:59.145Z,94978.16
2022-10-31T00:38:27.090Z,95000.28
2022-10-31T00:40:55.010Z,95002.09
2022-10-31T00:43:23.014Z,95002.28
2022-10-31T00:45:51.149Z,94995.22
2022-10-31T00:48:20.410Z,94993.59
2022-10-31T00:50:48.443Z,94991.81
2022-10-31T00:53:16.390Z,94995.47
2022-10-31T00:55:44.321Z,94999.28
2022-10-31T00:58:12.302Z,95006.50
2022-10-31T01:00:40.597Z,94978.59
2022-10-31T01:03:08.433Z,94984.81
2022-10-31T01:05:37.687Z,94988.50
2022-10-31T01:08:05.933Z,94994.47
2022-10-31T01:10:33.831Z,94995.97
2022-10-31T01:13:02.045Z,94983.03
2022-10-31T01:15:30.164Z,94996.59
2022-10-31T01:17:58.360Z,95000.56
2022-10-31T01:20:26.444Z,95005.91
2022-10-31T01:22:55.666Z,94992.09
2022-10-31T01:25:23.564Z,95005.03
2022-10-31T01:27:51.457Z,95012.88
2022-10-31T01:30:19.450Z,95014.06
2022-10-31T01:32:47.376Z,95019.72
2022-10-31T01:35:15.227Z,95024.75
2022-10-31T01:37:43.171Z,95017.81
2022-10-31T01:40:13.017Z,95016.00
2022-10-31T01:42:40.968Z,95023.84
2022-10-31T01:45:12.426Z,94996.44
2022-10-31T01:47:46.728Z,95014.81
2022-10-31T01:50:25.133Z,95025.66
2022-10-31T01:52:54.212Z,95022.59
2022-10-31T01:55:30.429Z,95020.25
2022-10-31T01:58:04.602Z,95013.09
2022-10-31T02:00:33.070Z,95017.78
2022-10-31T02:03:01.810Z,95016.28
2022-10-31T02:05:31.936Z,94998.72
2022-10-31T02:08:03.455Z,95010.66
2022-10-31T02:10:34.648Z,94986.97
2022-10-31T02:13:05.901Z,95004.94
2022-10-31T02:15:35.037Z,95008.16
2022-10-31T02:18:03.564Z,95005.66
2022-10-31T02:20:35.320Z,95010.63
2022-10-31T02:23:23.570Z,95005.66
2022-10-31T02:26:14.911Z,95005.66
2022-10-31T02:29:02.517Z,95023.16
2022-10-31T02:31:41.311Z,95023.25
2022-10-31T02:34:19.183Z,95025.44
2022-10-31T02:36:55.238Z,95032.41
2022-10-31T02:39:28.540Z,95030.44
2022-10-31T02:42:06.281Z,95028.09
2022-10-31T02:44:40.317Z,95037.88
2022-10-31T02:47:14.475Z,95035.84
2022-10-31T02:49:47.751Z,95037.41
2022-10-31T02:52:19.938Z,95034.44
2022-10-31T02:54:48.886Z,95045.25
2022-10-31T02:57:19.347Z,95038.13
2022-10-31T02:59:50.995Z,95046.13
2022-10-31T03:02:32.869Z,95045.31
2022-10-31T03:05:42.165Z,95052.94
2022-10-31T03:08:19.290Z,95044.22
2022-10-31T03:10:54.942Z,95044.59
2022-10-31T03:13:34.027Z,95053.88
2022-10-31T03:16:11.598Z,95050.41
2022-10-31T03:18:44.902Z,95041.13
2022-10-31T03:21:16.986Z,95043.72
2022-10-31T03:23:47.801Z,95045.84
2022-10-31T03:26:17.847Z,95053.97
2022-10-31T03:28:48.604Z,95048.34
2022-10-31T03:31:20.559Z,95049.03
2022-10-31T03:33:53.268Z,95055.38
2022-10-31T03:36:22.348Z,95054.91
2022-10-31T03:38:50.727Z,95049.13
2022-10-31T03:41:23.651Z,95072.44
2022-10-31T03:44:00.741Z,95065.00
2022-10-31T03:46:29.419Z,95065.38
2022-10-31T03:48:59.971Z,95073.91
2022-10-31T03:51:33.767Z,95074.97
2022-10-31T03:54:11.031Z,95072.63
2022-10-31T03:56:41.965Z,95070.88
2022-10-31T03:59:16.037Z,95066.00
2022-10-31T04:01:50.422Z,95082.91
2022-10-31T04:04:21.814Z,95081.72
2022-10-31T04:06:52.489Z,95082.31
2022-10-31T04:09:21.642Z,95077.03
2022-10-31T04:11:53.790Z,95084.47
2022-10-31T04:14:23.629Z,95070.50
2022-10-31T04:16:51.745Z,95061.84
2022-10-31T04:19:21.088Z,95092.75
2022-10-31T04:21:49.032Z,95076.16
2022-10-31T04:24:16.940Z,95093.16
2022-10-31T04:26:44.906Z,95082.31
2022-10-31T04:29:12.760Z,95098.09
2022-10-31T04:31:40.675Z,95087.84
2022-10-31T04:34:09.111Z,95083.16
2022-10-31T04:36:38.430Z,95083.97
2022-10-31T04:39:06.343Z,95080.19
2022-10-31T04:41:34.377Z,95086.38
2022-10-31T04:44:03.451Z,95090.91
2022-10-31T04:46:31.343Z,95098.38
2022-10-31T04:48:59.459Z,95097.22
2022-10-31T04:51:27.792Z,95097.94
2022-10-31T04:53:58.987Z,95103.16
2022-10-31T04:56:27.048Z,95112.84
2022-10-31T04:58:55.267Z,95100.28
2022-10-31T05:01:23.433Z,95107.66
2022-10-31T05:03:51.608Z,95103.59
2022-10-31T05:06:19.509Z,95104.16
2022-10-31T05:08:47.462Z,95109.38
2022-10-31T05:11:16.802Z,95114.75
2022-10-31T05:13:45.021Z,95105.19
2022-10-31T05:16:12.948Z,95117.06
2022-10-31T05:18:40.835Z,95109.63
2022-10-31T05:21:08.854Z,95120.47
2022-10-31T05:23:36.790Z,95122.28
2022-10-31T05:26:04.671Z,95128.94
2022-10-31T05:28:34.016Z,95121.91
2022-10-31T05:31:01.945Z,95138.69
2022-10-31T05:33:29.801Z,95137.25
2022-10-31T05:35:57.696Z,95134.28
2022-10-31T05:38:26.556Z,95145.19
2022-10-31T05:40:58.652Z,95133.50
2022-10-31T05:43:26.589Z,95140.06
2022-10-31T05:45:56.485Z,95135.19
2022-10-31T05:48:24.536Z,95145.97
2022-10-31T05:50:54.203Z,95141.13
2022-10-31T05:53:22.057Z,95144.06
2022-10-31T05:55:50.208Z,95141.09
2022-10-31T05:58:18.074Z,95133.16
2022-10-31T06:00:46.327Z,95142.75
2022-10-31T06:03:16.031Z,95144.84
2022-10-31T06:05:47.933Z,95151.22
2022-10-31T06:08:18.726Z,95156.09
2022-10-31T06:10:46.683Z,95158.84
2022-10-31T06:13:15.639Z,95159.03
2022-10-31T06:15:45.788Z,95157.88
2022-10-31T06:18:15.219Z,95169.56
2022-10-31T06:20:43.142Z,95168.28
2022-10-31T06:23:14.465Z,95176.41
2022-10-31T06:25:42.620Z,95179.00
2022-10-31T06:28:10.705Z,95185.69
2022-10-31T06:30:44.314Z,95189.91
2022-10-31T06:33:12.776Z,95189.56
2022-10-31T06:35:47.403Z,95190.72
2022-10-31T06:38:15.405Z,95190.84
2022-10-31T06:40:43.377Z,95194.25
2022-10-31T06:43:12.257Z,95201.53
2022-10-31T06:45:42.945Z,95198.72
2022-10-31T06:48:17.251Z,95197.69
2022-10-31T06:50:48.876Z,95201.56
2022-10-31T06:53:17.118Z,95189.66
2022-10-31T06:55:45.262Z,95182.81
2022-10-31T06:58:13.639Z,95199.31
2022-10-31T07:00:41.634Z,95190.41
2022-10-31T07:03:13.327Z,95201.53
2022-10-31T07:05:42.267Z,95205.78
2022-10-31T07:08:17.020Z,95205.53
2022-10-31T07:10:52.492Z,95194.00
2022-10-31T07:13:22.875Z,95184.50
2022-10-31T07:15:50.942Z,95197.59
2022-10-31T07:18:18.982Z,95204.47
2022-10-31T07:20:46.916Z,95199.53
2022-10-31T07:23:16.227Z,95191.16
2022-10-31T07:25:44.265Z,95169.28
2022-10-31T07:28:12.723Z,95181.22
2022-10-31T07:30:40.689Z,95189.34
2022-10-31T07:33:10.280Z,95177.53
2022-10-31T07:35:38.599Z,95181.50
2022-10-31T07:38:10.905Z,95185.78
2022-10-31T07:40:41.365Z,95182.63
2022-10-31T07:43:14.097Z,95188.75
2022-10-31T07:45:42.770Z,95185.88
2022-10-31T07:48:10.662Z,95184.59
2022-10-31T07:50:38.664Z,95182.22
2022-10-31T07:53:08.279Z,95167.38
2022-10-31T07:55:37.012Z,95186.03
2022-10-31T07:58:07.846Z,95177.25
2022-10-31T08:00:37.234Z,95190.13
2022-10-31T08:03:07.769Z,95181.09
2022-10-31T08:05:36.652Z,95191.81
2022-10-31T08:08:05.277Z,95187.47
2022-10-31T08:10:34.110Z,95190.19
2022-10-31T08:13:03.311Z,95180.16
2022-10-31T08:15:33.213Z,95186.56
2022-10-31T08:18:01.706Z,95188.13
2022-10-31T08:20:29.944Z,95185.59
2022-10-31T08:22:59.714Z,95190.56
2022-10-31T08:25:30.970Z,95186.75
2022-10-31T08:28:02.711Z,95189.03
2022-10-31T08:30:34.611Z,95184.25
2022-10-31T08:33:04.986Z,95184.31
2022-10-31T08:35:33.630Z,95183.78
2022-10-31T08:38:02.079Z,95184.47
2022-10-31T08:40:31.903Z,95183.69
2022-10-31T08:43:01.391Z,95180.72
2022-10-31T08:45:30.001Z,95187.81
2022-10-31T08:48:04.469Z,95188.03
2022-10-31T08:50:34.022Z,95181.78
2022-10-31T08:53:05.950Z,95161.56
2022-10-31T08:55:36.463Z,95184.28
2022-10-31T08:58:05.537Z,95180.88
2022-10-31T09:00:34.006Z,95177.47
2022-10-31T09:03:07.750Z,95168.38
2022-10-31T09:05:36.137Z,95186.59
2022-10-31T09:08:05.644Z,95180.34
2022-10-31T09:10:35.980Z,95185.41
2022-10-31T09:13:07.345Z,95177.47
2022-10-31T09:15:37.037Z,95166.63
2022-10-31T09:18:07.232Z,95177.13
2022-10-31T09:20:37.056Z,95168.50
2022-10-31T09:23:06.674Z,95167.41
2022-10-31T09:25:35.559Z,95170.50
2022-10-31T09:28:05.487Z,95166.53
2022-10-31T09:30:36.830Z,95154.03
2022-10-31T09:33:09.019Z,95149.25
2022-10-31T09:35:36.993Z,95150.25
2022-10-31T09:38:06.667Z,95173.34
2022-10-31T09:40:37.887Z,95167.16
2022-10-31T09:43:21.405Z,95171.00
2022-10-31T09:46:02.962Z,95155.28
2022-10-31T09:48:57.662Z,95151.31
2022-10-31T09:51:31.038Z,95149.69
2022-10-31T09:54:04.252Z,95158.34
2022-10-31T09:56:34.207Z,95166.63
2022-10-31T09:59:06.739Z,95155.38
2022-10-31T10:01:45.576Z,95140.53
2022-10-31T10:04:36.854Z,95161.56
2022-10-31T10:07:15.277Z,95147.53
2022-10-31T10:09:43.192Z,95129.31
2022-10-31T10:12:18.779Z,95126.22
2022-10-31T10:15:03.413Z,95136.84
2022-10-31T10:17:40.128Z,95137.34
2022-10-31T10:20:30.835Z,95121.75
2022-10-31T10:23:14.298Z,95127.47
2022-10-31T10:25:43.307Z,95120.84
2022-10-31T10:28:22.143Z,95116.28
2022-10-31T10:30:54.837Z,95099.06
2022-10-31T10:33:26.444Z,95093.97
2022-10-31T10:36:01.630Z,95099.22
2022-10-31T10:38:32.423Z,95099.56
2022-10-31T10:41:04.778Z,95102.97
2022-10-31T10:43:35.906Z,95102.59
2022-10-31T10:46:41.522Z,95099.72
2022-10-31T10:49:21.505Z,95081.84
2022-10-31T10:52:13.320Z,95092.84
2022-10-31T10:55:05.146Z,95091.00
2022-10-31T10:57:48.123Z,95082.34
2022-10-31T11:00:22.145Z,95084.34
2022-10-31T11:02:51.133Z,95087.03
2022-10-31T11:05:26.903Z,95093.47
2022-10-31T11:07:56.199Z,95095.16
2022-10-31T11:10:24.360Z,95086.63
2022-10-31T11:13:18.470Z,95086.69
2022-10-31T11:15:55.043Z,95073.88
2022-10-31T11:18:27.315Z,95067.47
2022-10-31T11:20:56.990Z,95075.25
2022-10-31T11:23:27.926Z,95062.41
2022-10-31T11:25:58.423Z,95072.78
2022-10-31T11:28:28.077Z,95067.47
2022-10-31T11:30:58.947Z,95064.53
2022-10-31T11:33:33.245Z,95061.03
2022-10-31T11:36:03.187Z,95059.41
2022-10-31T11:38:37.522Z,95055.34
2022-10-31T11:41:14.176Z,95048.66
2022-10-31T11:43:50.540Z,95054.31
2022-10-31T11:46:23.467Z,95041.72
2022-10-31T11:48:56.160Z,95048.97
2022-10-31T11:51:27.022Z,95046.56
2022-10-31T11:54:02.664Z,95044.44
2022-10-31T11:56:40.882Z,95030.34
2022-10-31T11:59:22.791Z,95036.41
2022-10-31T12:01:52.688Z,95028.72
2022-10-31T12:04:25.374Z,95013.88
2022-10-31T12:06:54.615Z,95018.56
2022-10-31T12:09:26.813Z,95028.16
2022-10-31T12:12:22.321Z,95033.47
2022-10-31T12:15:03.563Z,95017.31
2022-10-31T12:17:41.889Z,95023.72
2022-10-31T12:20:20.972Z,95017.84
2022-10-31T12:22:59.584Z,95025.72
2022-10-31T12:25:40.967Z,95026.25
2022-10-31T12:28:44.926Z,95015.50
2022-10-31T12:31:30.730Z,95025.44
2022-10-31T12:34:12.860Z,95029.28
2022-10-31T12:36:52.447Z,95024.69
2022-10-31T12:39:31.939Z,95022.50
2022-10-31T12:42:11.507Z,95022.47
2022-10-31T12:45:09.155Z,95021.00
2022-10-31T12:48:02.167Z,95019.09
2022-10-31T12:50:44.108Z,95029.19
2022-10-31T12:53:23.637Z,95018.69
2022-10-31T12:56:03.534Z,95007.31
2022-10-31T12:58:37.350Z,95015.69
2022-10-31T13:01:11.466Z,95016.53
2022-10-31T13:03:52.389Z,95026.13
2022-10-31T13:06:23.424Z,95023.13
2022-10-31T13:08:55.121Z,95028.69
2022-10-31T13:11:27.344Z,95018.03
2022-10-31T13:14:05.037Z,95023.03
2022-10-31T13:16:37.248Z,95021.59
2022-10-31T13:19:12.842Z,95011.72
2022-10-31T13:21:47.167Z,95018.84
2022-10-31T13:24:21.669Z,95012.31
2022-10-31T13:26:54.328Z,95019.06
2022-10-31T13:29:31.827Z,95006.84
2022-10-31T13:32:02.283Z,95006.66
2022-10-31T13:34:36.442Z,95012.44
2022-10-31T13:37:15.951Z,95011.13
2022-10-31T13:39:54.691Z,95019.91
2022-10-31T13:42:34.612Z,95017.16
2022-10-31T13:45:14.685Z,95015.75
2022-10-31T13:47:43.866Z,95012.59
2022-10-31T13:50:23.859Z,95018.38
2022-10-31T13:52:51.931Z,95014.81
2022-10-31T13:55:40.621Z,95016.16
2022-10-31T13:58:24.356Z,95009.66
2022-10-31T14:01:13.949Z,95014.31
2022-10-31T14:04:15.637Z,95013.75
2022-10-31T14:06:44.920Z,95011.78
2022-10-31T14:09:26.148Z,95019.69
2022-10-31T14:11:55.500Z,95013.03
2022-10-31T14:14:28.827Z,95020.75
2022-10-31T14:17:00.061Z,95017.94
2022-10-31T14:19:28.704Z,95017.19
2022-10-31T14:21:56.711Z,95018.03
2022-10-31T14:24:37.711Z,95022.28
2022-10-31T14:27:27.864Z,95033.97
2022-10-31T14:29:55.930Z,95026.72
2022-10-31T14:32:27.890Z,95024.59
2022-10-31T14:34:58.708Z,95030.75
2022-10-31T14:38:00.407Z,95012.41
2022-10-31T14:40:35.132Z,95029.75
2022-10-31T14:43:38.405Z,95023.94
2022-10-31T14:46:13.426Z,95026.09
2022-10-31T14:49:05.588Z,95033.84
2022-10-31T14:51:39.440Z,95021.53
2022-10-31T14:54:10.507Z,95027.38
2022-10-31T14:56:43.857Z,95028.34
2022-10-31T14:59:16.650Z,95026.06
2022-10-31T15:01:56.879Z,95026.75
2022-10-31T15:04:30.424Z,95018.59
2022-10-31T15:07:04.591Z,95026.72
2022-10-31T15:09:34.162Z,95031.53
2022-10-31T15:12:03.003Z,95029.19
2022-10-31T15:14:33.086Z,95022.19
2022-10-31T15:17:05.188Z,95032.22
2022-10-31T15:19:37.636Z,95033.28
2022-10-31T15:22:06.052Z,95015.69
2022-10-31T15:24:37.834Z,95031.75
2022-10-31T15:27:06.605Z,95033.41
2022-10-31T15:29:34.610Z,95041.81
2022-10-31T15:32:20.379Z,95049.63
2022-10-31T15:34:49.716Z,95048.59
2022-10-31T15:37:19.342Z,95053.00
2022-10-31T15:39:49.385Z,95049.06
2022-10-31T15:42:22.850Z,95047.16
2022-10-31T15:44:54.756Z,95043.25
2022-10-31T15:47:25.402Z,95051.78
2022-10-31T15:49:57.157Z,95055.34
2022-10-31T15:52:31.920Z,95050.28
2022-10-31T15:55:02.796Z,95059.16
2022-10-31T15:57:31.358Z,95051.97
2022-10-31T15:59:59.706Z,95060.56
2022-10-31T16:02:29.457Z,95067.09
2022-10-31T16:05:02.219Z,95069.22
2022-10-31T16:07:31.500Z,95071.13
2022-10-31T16:10:01.867Z,95071.13
2022-10-31T16:12:33.955Z,95070.31
2022-10-31T16:15:02.220Z,95070.84
2022-10-31T16:17:30.753Z,95060.88
2022-10-31T16:20:03.163Z,95079.19
2022-10-31T16:22:34.285Z,95064.50
2022-10-31T16:25:07.057Z,95083.09
2022-10-31T16:27:37.883Z,95078.47
2022-10-31T16:30:39.670Z,95088.38
2022-10-31T16:33:25.525Z,95097.31
2022-10-31T16:35:59.712Z,95095.78
2022-10-31T16:38:34.467Z,95092.78
2022-10-31T16:41:03.789Z,95093.69
2022-10-31T16:43:31.736Z,95094.66
2022-10-31T16:45:59.649Z,95106.44
2022-10-31T16:48:31.066Z,95111.13
2022-10-31T16:51:00.514Z,95111.78
2022-10-31T16:53:28.406Z,95098.09
2022-10-31T16:56:00.333Z,95107.66
2022-10-31T16:58:31.111Z,95120.22
2022-10-31T17:01:00.330Z,95114.78
2022-10-31T17:03:29.415Z,95111.63
2022-10-31T17:05:57.378Z,95119.50
2022-10-31T17:08:26.990Z,95131.84
2022-10-31T17:10:57.842Z,95129.53
2022-10-31T17:13:29.717Z,95123.47
2022-10-31T17:16:00.655Z,95128.13
2022-10-31T17:18:29.107Z,95128.31
2022-10-31T17:20:59.588Z,95132.69
2022-10-31T17:23:29.776Z,95142.38
2022-10-31T17:25:58.059Z,95139.78
2022-10-31T17:28:27.588Z,95130.56
2022-10-31T17:30:59.271Z,95135.28
2022-10-31T17:33:28.029Z,95132.78
2022-10-31T17:35:56.028Z,95140.06
2022-10-31T17:38:24.199Z,95145.41
2022-10-31T17:40:53.565Z,95144.78
2022-10-31T17:43:21.486Z,95150.84
2022-10-31T17:45:49.602Z,95142.22
2022-10-31T17:48:17.691Z,95153.53
2022-10-31T17:50:45.590Z,95162.00
2022-10-31T17:53:13.762Z,95161.16
2022-10-31T17:55:41.684Z,95154.13
2022-10-31T17:58:12.338Z,95146.91
2022-10-31T18:00:44.752Z,95165.69
2022-10-31T18:03:15.888Z,95147.31
2022-10-31T18:05:52.958Z,95162.03
2022-10-31T18:08:21.132Z,95171.97
2022-10-31T18:10:49.025Z,95163.66
2022-10-31T18:13:18.400Z,95174.22
2022-10-31T18:15:46.580Z,95162.88
2022-10-31T18:18:17.461Z,95164.72
2022-10-31T18:20:45.575Z,95165.94
2022-10-31T18:23:14.981Z,95158.06
2022-10-31T18:25:43.539Z,95167.75
2022-10-31T18:28:11.760Z,95164.50
2022-10-31T18:30:43.990Z,95171.59
2022-10-31T18:33:11.936Z,95169.19
2022-10-31T18:35:40.734Z,95170.75
2022-10-31T18:38:09.709Z,95176.22
2022-10-31T18:40:42.871Z,95182.25
2022-10-31T18:43:10.834Z,95181.47
2022-10-31T18:45:47.193Z,95171.38
2022-10-31T18:48:18.344Z,95194.63
2022-10-31T18:50:46.882Z,95182.91
2022-10-31T18:53:15.628Z,95186.38
2022-10-31T18:55:47.666Z,95182.38
2022-10-31T18:58:18.247Z,95175.47
2022-10-31T19:00:46.648Z,95183.56
2022-10-31T19:03:15.254Z,95189.81
2022-10-31T19:05:44.898Z,95182.56
2022-10-31T19:08:12.927Z,95184.56
2022-10-31T19:10:41.971Z,95190.84
2022-10-31T19:13:09.994Z,95190.44
2022-10-31T19:15:38.200Z,95176.69
2022-10-31T19:18:06.408Z,95194.88
2022-10-31T19:20:34.886Z,95192.44
2022-10-31T19:23:04.566Z,95190.03
2022-10-31T19:25:32.959Z,95190.03
2022-10-31T19:28:01.464Z,95175.66
2022-10-31T19:30:29.873Z,95180.91
2022-10-31T19:32:57.998Z,95183.38
2022-10-31T19:35:26.341Z,95186.38
2022-10-31T19:37:54.267Z,95184.38
2022-10-31T19:40:23.575Z,95186.78
2022-10-31T19:42:51.842Z,95198.91
2022-10-31T19:45:20.371Z,95194.84
2022-10-31T19:47:48.334Z,95191.59
2022-10-31T19:50:16.394Z,95199.28
2022-10-31T19:52:44.620Z,95199.66
2022-10-31T19:55:13.724Z,95199.84
2022-10-31T19:58:00.961Z,95201.25
2022-10-31T20:00:30.566Z,95203.00
2022-10-31T20:03:00.547Z,95202.78
2022-10-31T20:05:28.700Z,95185.53
2022-10-31T20:07:57.842Z,95194.59
2022-10-31T20:10:26.479Z,95205.81
2022-10-31T20:12:57.175Z,95204.84
2022-10-31T20:15:25.219Z,95205.44
2022-10-31T20:17:53.249Z,95213.69
2022-10-31T20:20:21.704Z,95220.81
2022-10-31T20:22:50.663Z,95219.34
2022-10-31T20:25:19.008Z,95203.75
2022-10-31T20:27:50.301Z,95219.13
2022-10-31T20:30:19.927Z,95219.06
2022-10-31T20:32:50.115Z,95223.00
2022-10-31T20:35:18.790Z,95222.94
2022-10-31T20:37:46.728Z,95226.00
2022-10-31T20:40:14.647Z,95227.50
2022-10-31T20:42:42.703Z,95224.91
2022-10-31T20:45:11.515Z,95234.91
2022-10-31T20:47:41.330Z,95233.13
2022-10-31T20:50:10.128Z,95232.34
2022-10-31T20:52:38.178Z,95242.13
2022-10-31T20:55:07.132Z,95241.84
2022-10-31T20:57:35.684Z,95237.78
2022-10-31T21:00:04.909Z,95242.59
2022-10-31T21:02:33.295Z,95233.47
2022-10-31T21:05:03.742Z,95237.09
2022-10-31T21:07:32.626Z,95240.34
2022-10-31T21:10:01.607Z,95247.03
2022-10-31T21:12:29.777Z,95238.91
2022-10-31T21:14:59.670Z,95246.19
2022-10-31T21:17:29.619Z,95243.97
2022-10-31T21:19:57.489Z,95229.97
2022-10-31T21:22:30.030Z,95243.31
2022-10-31T21:24:58.247Z,95231.34
2022-10-31T21:27:26.410Z,95233.19
2022-10-31T21:29:54.546Z,95229.72
2022-10-31T21:32:22.431Z,95233.97
2022-10-31T21:34:51.308Z,95232.97
2022-10-31T21:37:19.267Z,95225.81
2022-10-31T21:39:50.884Z,95233.94
2022-10-31T21:42:21.493Z,95242.50
2022-10-31T21:44:51.188Z,95249.47
2022-10-31T21:47:19.381Z,95232.13
2022-10-31T21:49:47.301Z,95244.13
2022-10-31T21:52:15.185Z,95248.38
2022-10-31T21:54:42.159Z,95245.09
2022-10-31T21:57:12.263Z,95239.59
2022-10-31T21:59:41.553Z,95240.59
2022-10-31T22:02:12.063Z,95246.22
2022-10-31T22:04:41.208Z,95244.22
2022-10-31T22:07:09.158Z,95242.22
2022-10-31T22:09:37.165Z,95248.09
2022-10-31T22:12:06.773Z,95249.72
2022-10-31T22:14:36.287Z,95254.31
2022-10-31T22:17:04.270Z,95253.34
2022-10-31T22:19:32.240Z,95249.81
2022-10-31T22:22:00.201Z,95251.19
2022-10-31T22:24:28.287Z,95256.91
2022-10-31T22:26:56.217Z,95249.63
2022-10-31T22:29:24.118Z,95253.94
2022-10-31T22:31:57.346Z,95248.97
2022-10-31T22:34:27.691Z,95258.56
2022-10-31T22:36:56.359Z,95263.31
2022-10-31T22:39:24.320Z,95256.25
2022-10-31T22:41:52.170Z,95265.72
2022-10-31T22:44:20.121Z,95266.28
2022-10-31T22:46:48.040Z,95257.13
2022-10-31T22:49:17.276Z,95256.06
2022-10-31T22:51:45.744Z,95259.38
2022-10-31T22:54:15.995Z,95253.75
2022-10-31T22:56:44.326Z,95249.69
2022-10-31T22:59:13.594Z,95252.22
2022-10-31T23:01:41.801Z,95257.00
2022-10-31T23:06:44.307Z,95239.50
2022-10-31T23:09:16.009Z,95252.25
2022-10-31T23:11:44.256Z,95250.94
2022-10-31T23:14:13.808Z,95247.03
2022-10-31T23:16:47.595Z,95252.75
2022-10-31T23:19:18.568Z,95247.84
2022-10-31T23:21:56.084Z,95244.88
2022-10-31T23:24:26.017Z,95243.41
2022-10-31T23:27:07.167Z,95243.59
2022-10-31T23:29:36.810Z,95250.75
2022-10-31T23:32:06.446Z,95246.69
2022-10-31T23:34:34.415Z,95246.84
2022-10-31T23:37:04.026Z,95242.44
2022-10-31T23:39:31.960Z,95245.19
2022-10-31T23:42:00.129Z,95242.25
2022-10-31T23:44:28.031Z,95240.97
2022-10-31T23:46:55.977Z,95247.34
2022-10-31T23:49:26.318Z,95242.13
2022-10-31T23:51:56.523Z,95242.69
2022-10-31T23:54:27.103Z,95244.03
2022-10-31T23:56:56.141Z,95242.88
2022-10-31T23:59:24.546Z,95242.03
